This is the latest recevied weather packets stored in our database for station/object SQ2ODE-13. If no packets are shown the sender has not sent any weather packets the latest 10 day(s).
| Time | Temp. | Humidity | Pressure | Rain* | Wind** | Luminosity | Snow |
|---|---|---|---|---|---|---|---|
| 1777193728 | 7.78° C | 39% | 1015.4 hPa | 0 mm | - | - | - |
| 1777190142 | 7.78° C | 51% | 1014.9 hPa | 0 mm | - | - | - |
| 1777184128 | 5.56° C | 71% | 1013.5 hPa | 0 mm | - | - | - |
| 1777183517 | 5.56° C | 74% | 1013.2 hPa | 0 mm | - | - | - |
| 1777177556 | 2.78° C | 82% | 1011.5 hPa | 0 mm | - | - | - |
| 1777169768 | 3.33° C | 83% | 1008.6 hPa | 0 mm | - | - | - |
| 1777166120 | 3.89° C | 85% | 1007.1 hPa | 0 mm | - | - | - |
| 1777163141 | 3.89° C | 82% | 1005.5 hPa | 0 mm | - | - | - |
| 1777159575 | 5° C | 83% | 1003.6 hPa | 0 mm | - | - | - |
| 1777155963 | 5° C | 83% | 1002.1 hPa | 0 mm | - | - | - |
| 1777154750 | 5.56° C | 81% | 1001.8 hPa | 0 mm | - | - | - |
| 1777150573 | 8.33° C | 62% | 1001.5 hPa | 0 mm | - | - | - |
| 1777145741 | 9.44° C | 59% | 1001.7 hPa | 0 mm | - | - | - |
| 1777140370 | 10° C | 61% | 1002.2 hPa | 0 mm | - | - | - |
| 1777139157 | 10.56° C | 60% | 1002.1 hPa | 0 mm | - | - | - |
| 1777137345 | 10.56° C | 60% | 1002.1 hPa | 0 mm | - | - | - |
| 1777134324 | 12.22° C | 53% | 1002.2 hPa | 0 mm | - | - | - |
| 1777128345 | 16.11° C | 36% | 1002 hPa | 0 mm | - | - | - |
| 1777122350 | 15.56° C | 40% | 1002.4 hPa | 0 mm | - | - | - |
| 1777121746 | 15° C | 40% | 1002.6 hPa | 0 mm | - | - | - |
| 1777121139 | 15° C | 40% | 1002.7 hPa | 0 mm | - | - | - |
| 1777120535 | 14.44° C | 41% | 1002.9 hPa | 0 mm | - | - | - |
| 1777116358 | 13.89° C | 45% | 1003 hPa | 0 mm | - | - | - |
| 1777112729 | 13.33° C | 53% | 1003.1 hPa | 0 mm | - | - | - |
| 1777109165 | 11.67° C | 61% | 1003.4 hPa | 0 mm | - | - | - |
* Rain latest hour (hover to see other rain measurements)
** Current wind speed in m/s (hover to see current wind gust speed)